createdAt,value
2023-01-20T00:00:36.805Z,3.66
2023-01-20T00:01:36.756Z,3.54
2023-01-20T00:02:36.786Z,3.60
2023-01-20T00:03:36.832Z,3.60
2023-01-20T00:04:36.749Z,3.55
2023-01-20T00:05:36.708Z,3.54
2023-01-20T00:06:36.705Z,3.60
2023-01-20T00:07:36.696Z,3.64
2023-01-20T00:08:36.695Z,3.56
2023-01-20T00:09:36.684Z,3.62
2023-01-20T00:10:36.664Z,3.63
2023-01-20T00:11:36.649Z,3.63
2023-01-20T00:12:36.643Z,3.60
2023-01-20T00:13:36.630Z,3.59
2023-01-20T00:14:36.637Z,3.62
2023-01-20T00:15:36.633Z,3.69
2023-01-20T00:16:36.598Z,3.56
2023-01-20T00:17:36.585Z,3.62
2023-01-20T00:18:36.601Z,3.63
2023-01-20T00:19:36.596Z,3.60
2023-01-20T00:20:36.555Z,3.66
2023-01-20T00:21:36.539Z,3.67
2023-01-20T00:22:36.537Z,3.66
2023-01-20T00:23:36.555Z,3.63
2023-01-20T00:24:36.538Z,3.66
2023-01-20T00:25:36.497Z,3.64
2023-01-20T00:26:36.493Z,3.64
2023-01-20T00:27:36.475Z,3.66
2023-01-20T00:28:36.489Z,3.67
2023-01-20T00:29:36.478Z,3.66
2023-01-20T00:30:36.468Z,3.72
2023-01-20T00:31:36.560Z,3.69
2023-01-20T00:32:36.423Z,3.66
2023-01-20T00:33:36.434Z,3.64
2023-01-20T00:34:36.448Z,3.67
2023-01-20T00:35:36.392Z,3.66
2023-01-20T00:36:36.393Z,3.74
2023-01-20T00:37:36.367Z,3.62
2023-01-20T00:38:36.366Z,3.62
2023-01-20T00:39:36.377Z,3.72
2023-01-20T00:40:36.341Z,3.72
2023-01-20T00:41:36.328Z,3.66
2023-01-20T00:42:36.316Z,3.64
2023-01-20T00:43:36.309Z,3.69
2023-01-20T00:44:36.318Z,3.70
2023-01-20T00:45:36.280Z,3.66
2023-01-20T00:46:36.280Z,3.70
2023-01-20T00:47:36.264Z,3.69
2023-01-20T00:48:36.257Z,3.62
2023-01-20T00:49:36.256Z,3.69
2023-01-20T00:50:36.255Z,3.74
2023-01-20T00:51:36.222Z,3.69
2023-01-20T00:52:36.212Z,3.69
2023-01-20T00:53:36.220Z,3.60
2023-01-20T00:54:36.186Z,3.70
2023-01-20T00:55:36.176Z,3.72
2023-01-20T00:56:36.194Z,3.64
2023-01-20T00:57:36.149Z,3.76
2023-01-20T00:58:36.167Z,3.72
2023-01-20T00:59:36.129Z,3.70
2023-01-20T01:00:36.156Z,3.70
2023-01-20T01:01:36.302Z,3.67
2023-01-20T01:02:36.110Z,3.66
2023-01-20T01:03:36.102Z,3.64
2023-01-20T01:04:36.079Z,3.70
2023-01-20T01:05:36.067Z,3.59
2023-01-20T01:06:36.100Z,3.63
2023-01-20T01:07:36.048Z,3.64
2023-01-20T01:08:36.061Z,3.69
2023-01-20T01:09:36.050Z,3.70
2023-01-20T01:10:36.015Z,3.70
2023-01-20T01:11:36.003Z,3.74
2023-01-20T01:12:35.994Z,3.67
2023-01-20T01:13:36.004Z,3.72
2023-01-20T01:14:35.975Z,3.70
2023-01-20T01:15:35.960Z,3.64
2023-01-20T01:16:35.989Z,3.67
2023-01-20T01:17:35.963Z,3.72
2023-01-20T01:18:35.935Z,3.63
2023-01-20T01:19:35.920Z,3.69
2023-01-20T01:20:35.905Z,3.69
2023-01-20T01:21:35.901Z,3.66
2023-01-20T01:22:35.934Z,3.72
2023-01-20T01:23:35.870Z,3.67
2023-01-20T01:24:35.892Z,3.67
2023-01-20T01:25:35.852Z,3.67
2023-01-20T01:26:35.841Z,3.66
2023-01-20T01:27:35.831Z,3.62
2023-01-20T01:28:35.832Z,3.63
2023-01-20T01:29:35.830Z,3.66
2023-01-20T01:30:35.845Z,3.69
2023-01-20T01:31:35.832Z,3.70
2023-01-20T01:32:35.777Z,3.64
2023-01-20T01:33:35.774Z,3.66
2023-01-20T01:34:35.785Z,3.72
2023-01-20T01:35:35.748Z,3.66
2023-01-20T01:36:35.756Z,3.69
2023-01-20T01:37:35.736Z,3.73
2023-01-20T01:38:35.737Z,3.62
2023-01-20T01:39:35.742Z,3.62
2023-01-20T01:40:35.728Z,3.69
2023-01-20T01:41:35.696Z,3.70
2023-01-20T01:42:35.673Z,3.80
2023-01-20T01:43:35.671Z,3.72
2023-01-20T01:44:35.650Z,3.67
2023-01-20T01:45:35.709Z,3.66
2023-01-20T01:46:35.647Z,3.69
2023-01-20T01:47:35.620Z,3.70
2023-01-20T01:48:35.618Z,3.67
2023-01-20T01:49:35.599Z,3.67
2023-01-20T01:50:35.609Z,3.67
2023-01-20T01:51:35.586Z,3.70
2023-01-20T01:52:35.562Z,3.69
2023-01-20T01:53:35.604Z,3.73
2023-01-20T01:54:35.559Z,3.64
2023-01-20T01:55:35.533Z,3.66
2023-01-20T01:56:35.529Z,3.64
2023-01-20T01:57:35.515Z,3.63
2023-01-20T01:58:35.503Z,3.62
2023-01-20T01:59:35.507Z,3.67
2023-01-20T02:00:35.495Z,3.66
2023-01-20T02:01:35.541Z,3.73
2023-01-20T02:02:35.476Z,3.66
2023-01-20T02:03:35.447Z,3.70
2023-01-20T02:04:35.447Z,3.72
2023-01-20T02:05:35.454Z,3.67
2023-01-20T02:06:35.410Z,3.64
2023-01-20T02:07:35.408Z,3.74
2023-01-20T02:08:35.390Z,3.73
2023-01-20T02:09:35.386Z,3.63
2023-01-20T02:10:35.405Z,3.70
2023-01-20T02:11:35.361Z,3.66
2023-01-20T02:12:35.346Z,3.74
2023-01-20T02:13:35.367Z,3.63
2023-01-20T02:14:35.335Z,3.64
2023-01-20T02:15:35.318Z,3.67
2023-01-20T02:16:35.383Z,3.60
2023-01-20T02:17:35.308Z,3.64
2023-01-20T02:18:35.305Z,3.64
2023-01-20T02:19:35.272Z,3.63
2023-01-20T02:20:35.264Z,3.69
2023-01-20T02:21:35.259Z,3.73
2023-01-20T02:22:35.243Z,3.67
2023-01-20T02:23:35.258Z,3.62
2023-01-20T02:24:35.219Z,3.66
2023-01-20T02:25:35.209Z,3.74
2023-01-20T02:26:35.213Z,3.74
2023-01-20T02:27:35.207Z,3.62
2023-01-20T02:28:35.179Z,3.69
2023-01-20T02:29:35.169Z,3.60
2023-01-20T02:30:35.200Z,3.70
2023-01-20T02:31:35.177Z,3.62
2023-01-20T02:32:35.127Z,3.69
2023-01-20T02:33:35.141Z,3.64
2023-01-20T02:34:35.114Z,3.64
2023-01-20T02:35:35.133Z,3.64
2023-01-20T02:36:35.090Z,3.69
2023-01-20T02:37:35.085Z,3.62
2023-01-20T02:38:35.073Z,3.60
2023-01-20T02:39:35.085Z,3.67
2023-01-20T02:40:35.065Z,3.60
2023-01-20T02:41:35.038Z,3.66
2023-01-20T02:42:35.053Z,3.62
2023-01-20T02:43:35.020Z,3.60
2023-01-20T02:44:35.038Z,3.56
2023-01-20T02:45:35.021Z,3.64
2023-01-20T02:46:34.986Z,3.60
2023-01-20T02:47:34.976Z,3.59
2023-01-20T02:48:34.964Z,3.60
2023-01-20T02:49:34.968Z,3.60
2023-01-20T02:50:34.965Z,3.49
2023-01-20T02:51:34.930Z,3.60
2023-01-20T02:52:34.920Z,3.66
2023-01-20T02:53:34.906Z,3.60
2023-01-20T02:54:34.894Z,3.59
2023-01-20T02:55:34.907Z,3.49
2023-01-20T02:56:34.882Z,3.55
2023-01-20T02:57:34.868Z,3.55
2023-01-20T02:58:34.878Z,3.63
2023-01-20T02:59:34.850Z,3.46
2023-01-20T03:00:34.862Z,3.63
2023-01-20T03:01:34.967Z,3.56
2023-01-20T03:02:34.812Z,3.51
2023-01-20T03:03:34.815Z,3.56
2023-01-20T03:04:34.805Z,3.49
2023-01-20T03:05:34.862Z,3.60
2023-01-20T03:06:34.772Z,3.48
2023-01-20T03:07:34.765Z,3.52
2023-01-20T03:08:34.747Z,3.63
2023-01-20T03:09:34.733Z,3.52
2023-01-20T03:10:34.752Z,3.49
2023-01-20T03:11:36.208Z,3.51
2023-01-20T03:12:34.704Z,3.56
2023-01-20T03:13:34.691Z,3.54
2023-01-20T03:14:34.728Z,3.54
2023-01-20T03:15:34.701Z,3.46
2023-01-20T03:16:34.663Z,3.51
2023-01-20T03:17:34.657Z,3.55
2023-01-20T03:18:34.644Z,3.59
2023-01-20T03:19:34.625Z,3.63
2023-01-20T03:20:34.621Z,3.52
2023-01-20T03:21:34.620Z,3.60
2023-01-20T03:22:34.596Z,3.48
2023-01-20T03:23:34.612Z,3.51
2023-01-20T03:24:34.576Z,3.48
2023-01-20T03:25:34.563Z,3.48
2023-01-20T03:26:34.563Z,3.51
2023-01-20T03:27:34.543Z,3.48
2023-01-20T03:28:34.559Z,3.51
2023-01-20T03:29:34.523Z,3.52
2023-01-20T03:30:34.656Z,3.52
2023-01-20T03:31:34.649Z,3.48
2023-01-20T03:32:34.495Z,3.49
2023-01-20T03:33:34.476Z,3.51
2023-01-20T03:34:34.522Z,3.48
2023-01-20T03:35:34.458Z,3.55
2023-01-20T03:36:34.447Z,3.48
2023-01-20T03:37:34.430Z,3.51
2023-01-20T03:38:34.431Z,3.49
2023-01-20T03:39:34.441Z,3.48
2023-01-20T03:40:34.415Z,3.52
2023-01-20T03:41:34.394Z,3.46
2023-01-20T03:42:34.382Z,3.62
2023-01-20T03:43:34.406Z,3.51
2023-01-20T03:44:34.363Z,3.49
2023-01-20T03:45:34.346Z,3.56
2023-01-20T03:46:34.357Z,3.52
2023-01-20T03:47:34.329Z,3.46
2023-01-20T03:48:34.324Z,3.45
2023-01-20T03:49:34.326Z,3.59
2023-01-20T03:50:34.298Z,3.52
2023-01-20T03:51:34.284Z,3.51
2023-01-20T03:52:46.931Z,3.52
2023-01-20T03:53:35.260Z,3.55
2023-01-20T03:54:34.278Z,3.49
2023-01-20T03:55:34.241Z,3.51
2023-01-20T03:56:34.234Z,3.52
2023-01-20T03:57:34.240Z,3.51
2023-01-20T03:58:34.214Z,3.52
2023-01-20T03:59:34.204Z,3.52
2023-01-20T04:00:34.195Z,3.51
2023-01-20T04:01:34.358Z,3.49
2023-01-20T04:02:34.216Z,3.54
2023-01-20T04:03:34.287Z,3.51
2023-01-20T04:04:34.151Z,3.49
2023-01-20T04:05:34.132Z,3.48
2023-01-20T04:06:34.124Z,3.51
2023-01-20T04:07:34.111Z,3.46
2023-01-20T04:08:34.147Z,3.51
2023-01-20T04:09:34.120Z,3.51
2023-01-20T04:10:34.094Z,3.49
2023-01-20T04:11:34.091Z,3.54
2023-01-20T04:12:34.056Z,3.51
2023-01-20T04:13:34.075Z,3.54
2023-01-20T04:14:34.037Z,3.62
2023-01-20T04:15:34.046Z,3.51
2023-01-20T04:16:34.038Z,3.51
2023-01-20T04:17:34.006Z,3.52
2023-01-20T04:18:34.038Z,3.56
2023-01-20T04:19:33.987Z,3.48
2023-01-20T04:20:33.975Z,3.52
2023-01-20T04:21:33.967Z,3.48
2023-01-20T04:22:33.966Z,3.52
2023-01-20T04:23:33.966Z,3.64
2023-01-20T04:24:33.932Z,3.52
2023-01-20T04:25:33.922Z,3.51
2023-01-20T04:26:33.911Z,3.51
2023-01-20T04:27:33.897Z,3.54
2023-01-20T04:28:33.909Z,3.46
2023-01-20T04:29:33.907Z,3.56
2023-01-20T04:30:33.916Z,3.48
2023-01-20T04:31:33.977Z,3.46
2023-01-20T04:32:33.847Z,3.54
2023-01-20T04:33:33.839Z,3.60
2023-01-20T04:34:33.869Z,3.52
2023-01-20T04:35:33.825Z,3.52
2023-01-20T04:36:33.811Z,3.46
2023-01-20T04:37:33.806Z,3.55
2023-01-20T04:38:33.812Z,3.52
2023-01-20T04:39:33.770Z,3.49
2023-01-20T04:40:33.788Z,3.46
2023-01-20T04:41:33.749Z,3.55
2023-01-20T04:42:33.741Z,3.49
2023-01-20T04:43:33.728Z,3.52
2023-01-20T04:44:33.720Z,3.62
2023-01-20T04:45:33.728Z,3.55
2023-01-20T04:46:35.999Z,3.62
2023-01-20T04:47:33.702Z,3.48
2023-01-20T04:48:33.676Z,3.46
2023-01-20T04:49:33.684Z,3.48
2023-01-20T04:50:33.685Z,3.52
2023-01-20T04:51:33.642Z,3.52
2023-01-20T04:52:33.633Z,3.48
2023-01-20T04:53:33.617Z,3.56
2023-01-20T04:54:33.634Z,3.46
2023-01-20T04:55:33.597Z,3.56
2023-01-20T04:56:33.596Z,3.63
2023-01-20T04:57:33.582Z,3.48
2023-01-20T04:58:33.574Z,3.52
2023-01-20T04:59:33.583Z,3.69
2023-01-20T05:00:33.548Z,3.52
2023-01-20T05:01:33.628Z,3.54
2023-01-20T05:02:33.560Z,3.55
2023-01-20T05:03:33.508Z,3.54
2023-01-20T05:04:33.525Z,3.64
2023-01-20T05:05:33.487Z,3.63
2023-01-20T05:06:33.501Z,3.56
2023-01-20T05:07:33.468Z,3.48
2023-01-20T05:08:33.461Z,3.51
2023-01-20T05:09:33.483Z,3.52
2023-01-20T05:10:33.444Z,3.52
2023-01-20T05:11:33.421Z,3.51
2023-01-20T05:12:33.421Z,3.62
2023-01-20T05:13:33.408Z,3.46
2023-01-20T05:14:33.399Z,3.52
2023-01-20T05:15:33.463Z,3.49
2023-01-20T05:16:33.375Z,3.51
2023-01-20T05:17:33.362Z,3.54
2023-01-20T05:18:33.353Z,3.64
2023-01-20T05:19:33.340Z,3.49
2023-01-20T05:20:33.349Z,3.48
2023-01-20T05:21:33.320Z,3.51
2023-01-20T05:22:33.403Z,3.49
2023-01-20T05:23:33.294Z,3.46
2023-01-20T05:24:33.288Z,3.55
2023-01-20T05:25:33.294Z,3.64
2023-01-20T05:26:33.278Z,3.59
2023-01-20T05:27:33.257Z,3.60
2023-01-20T05:28:33.273Z,3.54
2023-01-20T05:29:33.233Z,3.54
2023-01-20T05:30:33.278Z,3.54
2023-01-20T05:31:33.300Z,3.49
2023-01-20T05:32:33.202Z,3.63
2023-01-20T05:33:33.207Z,3.48
2023-01-20T05:34:33.177Z,3.48
2023-01-20T05:35:33.165Z,3.62
2023-01-20T05:36:33.160Z,3.55
2023-01-20T05:37:33.148Z,3.48
2023-01-20T05:38:33.172Z,3.51
2023-01-20T05:39:33.140Z,3.46
2023-01-20T05:40:33.121Z,3.46
2023-01-20T05:41:33.101Z,3.66
2023-01-20T05:42:33.094Z,3.56
2023-01-20T05:43:33.112Z,3.63
2023-01-20T05:44:33.097Z,3.52
2023-01-20T05:45:33.091Z,3.59
2023-01-20T05:46:33.080Z,3.52
2023-01-20T05:47:33.047Z,3.62
2023-01-20T05:48:33.030Z,3.56
2023-01-20T05:49:33.048Z,3.52
2023-01-20T05:50:33.014Z,3.56
2023-01-20T05:51:32.996Z,3.51
2023-01-20T05:52:32.988Z,3.63
2023-01-20T05:53:32.977Z,3.56
2023-01-20T05:54:33.007Z,3.64
2023-01-20T05:55:32.962Z,3.45
2023-01-20T05:56:32.957Z,3.56
2023-01-20T05:57:32.937Z,3.52
2023-01-20T05:58:32.923Z,3.55
2023-01-20T05:59:32.940Z,3.64
2023-01-20T06:00:32.927Z,3.51
2023-01-20T06:01:32.993Z,3.64
2023-01-20T06:02:32.936Z,3.48
2023-01-20T06:03:32.888Z,3.52
2023-01-20T06:04:32.881Z,3.51
2023-01-20T06:05:32.850Z,3.55
2023-01-20T06:06:32.847Z,3.51
2023-01-20T06:07:32.823Z,3.49
2023-01-20T06:08:32.826Z,3.51
2023-01-20T06:09:32.800Z,3.49
2023-01-20T06:10:32.832Z,3.63
2023-01-20T06:11:32.798Z,3.63
2023-01-20T06:12:32.776Z,3.59
2023-01-20T06:13:32.787Z,3.63
2023-01-20T06:14:32.756Z,3.55
2023-01-20T06:15:32.739Z,3.63
2023-01-20T06:16:32.778Z,3.62
2023-01-20T06:17:32.718Z,3.63
2023-01-20T06:18:32.732Z,3.52
2023-01-20T06:19:32.705Z,3.52
2023-01-20T06:20:32.687Z,3.48
2023-01-20T06:21:32.678Z,3.54
2023-01-20T06:22:32.696Z,3.49
2023-01-20T06:23:32.647Z,3.46
2023-01-20T06:24:32.645Z,3.62
2023-01-20T06:25:32.632Z,3.48
2023-01-20T06:26:32.666Z,3.63
2023-01-20T06:27:32.615Z,3.66
2023-01-20T06:28:32.602Z,3.55
2023-01-20T06:29:32.589Z,3.64
2023-01-20T06:30:32.720Z,3.56
2023-01-20T06:31:32.638Z,3.52
2023-01-20T06:32:32.561Z,3.60
2023-01-20T06:33:32.571Z,3.52
2023-01-20T06:34:32.559Z,3.55
2023-01-20T06:35:32.524Z,3.51
2023-01-20T06:36:32.561Z,3.48
2023-01-20T06:37:32.502Z,3.52
2023-01-20T06:38:32.493Z,3.51
2023-01-20T06:39:32.482Z,3.54
2023-01-20T06:40:32.481Z,3.48
2023-01-20T06:41:32.509Z,3.56
2023-01-20T06:42:32.473Z,3.48
2023-01-20T06:43:32.439Z,3.51
2023-01-20T06:44:32.436Z,3.49
2023-01-20T06:45:32.424Z,3.62
2023-01-20T06:46:32.434Z,3.59
2023-01-20T06:47:32.399Z,3.54
2023-01-20T06:48:32.413Z,3.51
2023-01-20T06:49:32.377Z,3.52
2023-01-20T06:50:32.371Z,3.48
2023-01-20T06:51:32.352Z,3.52
2023-01-20T06:52:32.350Z,3.46
2023-01-20T06:53:32.365Z,3.54
2023-01-20T06:54:32.326Z,3.49
2023-01-20T06:55:32.317Z,3.55
2023-01-20T06:56:32.302Z,3.51
2023-01-20T06:57:32.291Z,3.54
2023-01-20T06:58:32.329Z,3.60
2023-01-20T06:59:32.266Z,3.64
2023-01-20T07:00:32.278Z,3.56
2023-01-20T07:01:32.395Z,3.48
2023-01-20T07:02:32.283Z,3.63
2023-01-20T07:03:32.227Z,3.46
2023-01-20T07:04:32.213Z,3.46
2023-01-20T07:05:32.211Z,3.52
2023-01-20T07:06:32.192Z,3.46
2023-01-20T07:07:32.200Z,3.51
2023-01-20T07:08:32.172Z,3.52
2023-01-20T07:09:32.162Z,3.51
2023-01-20T07:10:32.146Z,3.51
2023-01-20T07:11:32.151Z,3.52
2023-01-20T07:12:32.154Z,3.48
2023-01-20T07:13:32.118Z,3.54
2023-01-20T07:14:32.149Z,3.63
2023-01-20T07:15:32.103Z,3.55
2023-01-20T07:16:32.136Z,3.52
2023-01-20T07:17:32.083Z,3.55
2023-01-20T07:18:32.093Z,3.52
2023-01-20T07:19:32.135Z,3.54
2023-01-20T07:20:32.043Z,3.51
2023-01-20T07:21:32.032Z,3.48
2023-01-20T07:22:32.023Z,3.52
2023-01-20T07:23:32.043Z,3.51
2023-01-20T07:24:32.000Z,3.51
2023-01-20T07:25:31.996Z,3.52
2023-01-20T07:26:31.987Z,3.51
2023-01-20T07:27:31.968Z,3.55
2023-01-20T07:28:31.975Z,3.45
2023-01-20T07:29:31.946Z,3.49
2023-01-20T07:30:31.997Z,3.48
2023-01-20T07:31:31.999Z,3.48
2023-01-20T07:32:31.938Z,3.48
2023-01-20T07:33:31.902Z,3.54
2023-01-20T07:34:31.900Z,3.56
2023-01-20T07:35:31.881Z,3.45
2023-01-20T07:36:31.872Z,3.51
2023-01-20T07:37:31.915Z,3.51
2023-01-20T07:38:31.879Z,3.54
2023-01-20T07:39:31.854Z,3.55
2023-01-20T07:40:31.827Z,3.52
2023-01-20T07:41:31.819Z,3.48
2023-01-20T07:42:31.835Z,3.55
2023-01-20T07:43:31.799Z,3.52
2023-01-20T07:44:31.787Z,3.49
2023-01-20T07:45:31.817Z,3.52
2023-01-20T07:46:31.809Z,3.54
2023-01-20T07:47:31.762Z,3.51
2023-01-20T07:48:31.752Z,3.51
2023-01-20T07:49:31.736Z,3.54
2023-01-20T07:50:31.720Z,3.51
2023-01-20T07:51:31.733Z,3.46
2023-01-20T07:52:31.710Z,3.54
2023-01-20T07:53:31.692Z,3.49
2023-01-20T07:54:31.708Z,3.52
2023-01-20T07:55:31.679Z,3.48
2023-01-20T07:56:31.684Z,3.48
2023-01-20T07:57:31.690Z,3.52
2023-01-20T07:58:31.639Z,3.51
2023-01-20T07:59:31.645Z,3.48
2023-01-20T08:00:31.616Z,3.54
2023-01-20T08:01:31.741Z,3.59
2023-01-20T08:02:31.611Z,3.49
2023-01-20T08:03:31.583Z,3.51
2023-01-20T08:04:31.592Z,3.49
2023-01-20T08:05:31.563Z,3.52
2023-01-20T08:06:31.550Z,3.48
2023-01-20T08:07:31.564Z,3.55
2023-01-20T08:08:31.531Z,3.51
2023-01-20T08:09:31.537Z,3.59
2023-01-20T08:10:31.560Z,3.51
2023-01-20T08:11:31.505Z,3.51
2023-01-20T08:12:31.482Z,3.52
2023-01-20T08:13:31.480Z,3.48
2023-01-20T08:14:31.485Z,3.52
2023-01-20T08:15:31.469Z,3.55
2023-01-20T08:16:31.494Z,3.51
2023-01-20T08:17:31.439Z,3.48
2023-01-20T08:18:31.442Z,3.48
2023-01-20T08:19:31.457Z,3.59
2023-01-20T08:20:31.398Z,3.52
2023-01-20T08:21:31.420Z,3.48
2023-01-20T08:22:31.397Z,3.54
2023-01-20T08:23:31.366Z,3.49
2023-01-20T08:24:31.379Z,3.49
2023-01-20T08:25:31.349Z,3.54
2023-01-20T08:26:31.347Z,3.46
2023-01-20T08:27:31.325Z,3.52
2023-01-20T08:28:31.315Z,3.49
2023-01-20T08:29:31.330Z,3.60
2023-01-20T08:30:31.452Z,3.52
2023-01-20T08:31:31.437Z,3.51
2023-01-20T08:32:31.275Z,3.51
2023-01-20T08:33:31.283Z,3.52
2023-01-20T08:34:31.273Z,3.51
2023-01-20T08:35:31.242Z,3.48
2023-01-20T08:36:31.237Z,3.51
2023-01-20T08:37:31.221Z,3.51
2023-01-20T08:38:31.226Z,3.60
2023-01-20T08:39:31.223Z,3.63
2023-01-20T08:40:33.282Z,3.48
2023-01-20T08:41:31.185Z,3.52
2023-01-20T08:42:31.163Z,3.52
2023-01-20T08:43:31.152Z,3.62
2023-01-20T08:44:31.175Z,3.52
2023-01-20T08:45:31.136Z,3.67
2023-01-20T08:46:31.118Z,3.56
2023-01-20T08:47:31.122Z,3.54
2023-01-20T08:48:31.122Z,3.64
2023-01-20T08:49:31.092Z,3.59
2023-01-20T08:50:31.103Z,3.60
2023-01-20T08:51:31.138Z,3.52
2023-01-20T08:52:31.060Z,3.49
2023-01-20T08:53:31.088Z,3.56
2023-01-20T08:54:31.036Z,3.66
2023-01-20T08:55:31.028Z,3.60
2023-01-20T08:56:31.019Z,3.60
2023-01-20T08:57:31.016Z,3.60
2023-01-20T08:58:31.016Z,3.59
2023-01-20T08:59:30.992Z,3.54
2023-01-20T09:00:30.992Z,3.66
2023-01-20T09:01:31.075Z,3.59
2023-01-20T09:02:31.038Z,3.56
2023-01-20T09:03:33.040Z,3.60
2023-01-20T09:04:30.929Z,3.62
2023-01-20T09:05:30.924Z,3.67
2023-01-20T09:06:30.934Z,3.56
2023-01-20T09:07:30.895Z,3.60
2023-01-20T09:08:30.887Z,3.56
2023-01-20T09:09:30.899Z,3.59
2023-01-20T09:10:30.884Z,3.56
2023-01-20T09:11:31.022Z,3.56
2023-01-20T09:12:30.842Z,3.59
2023-01-20T09:13:30.831Z,3.62
2023-01-20T09:14:30.821Z,3.64
2023-01-20T09:15:30.852Z,3.67
2023-01-20T09:16:30.801Z,3.66
2023-01-20T09:17:30.795Z,3.69
2023-01-20T09:18:30.776Z,3.59
2023-01-20T09:19:30.793Z,3.63
2023-01-20T09:20:30.762Z,3.69
2023-01-20T09:21:30.748Z,3.69
2023-01-20T09:22:30.815Z,3.64
2023-01-20T09:23:30.724Z,3.69
2023-01-20T09:24:30.750Z,3.72
2023-01-20T09:25:30.732Z,3.60
2023-01-20T09:26:35.810Z,3.70
2023-01-20T09:27:31.703Z,3.66
2023-01-20T09:28:30.671Z,3.70
2023-01-20T09:29:30.666Z,3.66
2023-01-20T09:30:30.669Z,3.74
2023-01-20T09:31:30.887Z,3.67
2023-01-20T09:32:30.636Z,3.76
2023-01-20T09:33:30.641Z,3.67
2023-01-20T09:34:30.611Z,3.72
2023-01-20T09:35:30.616Z,3.69
2023-01-20T09:36:30.587Z,3.64
2023-01-20T09:37:30.579Z,3.67
2023-01-20T09:38:30.619Z,3.64
2023-01-20T09:39:30.567Z,3.69
2023-01-20T09:40:30.545Z,3.67
2023-01-20T09:41:30.541Z,3.67
2023-01-20T09:42:30.521Z,3.73
2023-01-20T09:43:30.538Z,3.66
2023-01-20T09:44:30.500Z,3.74
2023-01-20T09:45:30.515Z,3.80
2023-01-20T09:46:30.543Z,3.67
2023-01-20T09:47:31.281Z,3.82
2023-01-20T09:48:30.457Z,3.74
2023-01-20T09:49:30.480Z,3.73
2023-01-20T09:50:30.454Z,3.80
2023-01-20T09:51:30.432Z,3.74
2023-01-20T09:52:30.422Z,3.80
2023-01-20T09:53:30.403Z,3.80
2023-01-20T09:54:30.447Z,3.81
2023-01-20T09:55:30.380Z,3.84
2023-01-20T09:56:30.400Z,3.80
2023-01-20T09:57:30.361Z,3.82
2023-01-20T09:58:30.356Z,3.74
2023-01-20T09:59:30.356Z,3.84
2023-01-20T10:00:30.365Z,3.74
2023-01-20T10:01:30.339Z,3.80
2023-01-20T10:02:30.303Z,3.88
2023-01-20T10:03:30.300Z,3.85
2023-01-20T10:04:30.286Z,3.85
2023-01-20T10:05:30.362Z,3.85
2023-01-20T10:06:30.289Z,3.81
2023-01-20T10:07:30.252Z,3.85
2023-01-20T10:08:30.240Z,3.76
2023-01-20T10:09:33.362Z,3.82
2023-01-20T10:10:30.263Z,3.74
2023-01-20T10:11:30.288Z,3.84
2023-01-20T10:12:30.200Z,3.80
2023-01-20T10:13:30.197Z,3.81
2023-01-20T10:14:30.180Z,3.82
2023-01-20T10:15:30.183Z,3.81
2023-01-20T10:16:30.154Z,3.85
2023-01-20T10:17:30.149Z,3.88
2023-01-20T10:18:30.139Z,3.92
2023-01-20T10:19:30.134Z,3.84
2023-01-20T10:20:30.149Z,3.82
2023-01-20T10:21:30.131Z,3.94
2023-01-20T10:22:30.102Z,3.91
2023-01-20T10:23:30.081Z,3.90
2023-01-20T10:24:30.073Z,3.87
2023-01-20T10:25:30.057Z,3.87
2023-01-20T10:26:30.104Z,3.91
2023-01-20T10:27:30.064Z,3.92
2023-01-20T10:28:30.052Z,3.90
2023-01-20T10:29:30.022Z,3.92
2023-01-20T10:30:30.078Z,3.90
2023-01-20T10:31:30.083Z,3.81
2023-01-20T10:32:29.984Z,3.91
2023-01-20T10:33:29.975Z,3.94
2023-01-20T10:34:29.964Z,3.96
2023-01-20T10:35:29.949Z,3.92
2023-01-20T10:36:29.936Z,3.98
2023-01-20T10:37:29.961Z,4.00
2023-01-20T10:38:29.924Z,3.96
2023-01-20T10:39:29.908Z,4.00
2023-01-20T10:40:29.955Z,3.94
2023-01-20T10:41:29.893Z,3.91
2023-01-20T10:42:29.907Z,3.94
2023-01-20T10:43:29.869Z,3.96
2023-01-20T10:44:29.855Z,3.98
2023-01-20T10:45:29.846Z,3.92
2023-01-20T10:46:29.886Z,4.02
2023-01-20T10:47:29.853Z,3.99
2023-01-20T10:48:29.809Z,4.09
2023-01-20T10:49:29.800Z,3.99
2023-01-20T10:50:29.830Z,4.02
2023-01-20T10:51:29.807Z,4.03
2023-01-20T10:52:29.790Z,4.06
2023-01-20T10:53:29.758Z,3.96
2023-01-20T10:54:29.743Z,4.02
2023-01-20T10:55:29.751Z,4.06
2023-01-20T10:56:31.146Z,4.06
2023-01-20T10:57:29.733Z,4.06
2023-01-20T10:58:29.775Z,4.06
2023-01-20T10:59:29.698Z,4.08
2023-01-20T11:00:29.710Z,4.06
2023-01-20T11:01:29.707Z,4.08
2023-01-20T11:02:29.827Z,4.16
2023-01-20T11:03:29.690Z,4.09
2023-01-20T11:04:29.641Z,4.10
2023-01-20T11:05:29.653Z,4.05
2023-01-20T11:06:29.636Z,4.06
2023-01-20T11:07:29.606Z,4.12
2023-01-20T11:08:29.613Z,4.08
2023-01-20T11:09:29.584Z,4.13
2023-01-20T11:10:29.575Z,4.20
2023-01-20T11:11:29.586Z,4.18
2023-01-20T11:12:29.647Z,4.21
2023-01-20T11:13:29.542Z,4.17
2023-01-20T11:14:29.600Z,4.16
2023-01-20T11:15:29.561Z,4.21
2023-01-20T11:16:29.535Z,4.21
2023-01-20T11:17:29.520Z,4.24
2023-01-20T11:18:29.509Z,4.18
2023-01-20T11:19:29.472Z,4.21
2023-01-20T11:20:29.466Z,4.20
2023-01-20T11:21:29.454Z,4.26
2023-01-20T11:22:29.479Z,4.21
2023-01-20T11:23:29.432Z,4.24
2023-01-20T11:24:29.425Z,4.31
2023-01-20T11:25:29.421Z,4.24
2023-01-20T11:26:29.435Z,4.23
2023-01-20T11:27:29.389Z,4.30
2023-01-20T11:28:29.378Z,4.23
2023-01-20T11:29:29.365Z,4.27
2023-01-20T11:30:29.404Z,4.30
2023-01-20T11:31:29.422Z,4.23
2023-01-20T11:32:29.348Z,4.26
2023-01-20T11:33:29.420Z,4.36
2023-01-20T11:34:29.339Z,4.26
2023-01-20T11:35:29.299Z,4.26
2023-01-20T11:36:29.320Z,4.30
2023-01-20T11:37:29.283Z,4.31
2023-01-20T11:38:29.270Z,4.30
2023-01-20T11:39:29.269Z,4.35
2023-01-20T11:40:29.248Z,4.34
2023-01-20T11:41:29.264Z,4.34
2023-01-20T11:42:29.228Z,4.34
2023-01-20T11:43:29.218Z,4.28
2023-01-20T11:44:29.212Z,4.36
2023-01-20T11:45:29.220Z,4.30
2023-01-20T11:46:29.309Z,4.38
2023-01-20T11:47:29.172Z,4.38
2023-01-20T11:48:29.167Z,4.31
2023-01-20T11:49:29.147Z,4.39
2023-01-20T11:50:29.144Z,4.34
2023-01-20T11:51:29.180Z,4.41
2023-01-20T11:52:29.147Z,4.41
2023-01-20T11:53:29.125Z,4.45
2023-01-20T11:54:29.132Z,4.48
2023-01-20T11:55:29.083Z,4.38
2023-01-20T11:56:29.080Z,4.35
2023-01-20T11:57:29.080Z,4.46
2023-01-20T11:58:29.087Z,4.41
2023-01-20T11:59:29.077Z,4.41
2023-01-20T12:00:29.030Z,4.39
2023-01-20T12:01:29.027Z,4.49
2023-01-20T12:02:29.030Z,4.38
2023-01-20T12:03:29.023Z,4.45
2023-01-20T12:04:29.112Z,4.48
2023-01-20T12:05:28.982Z,4.48
2023-01-20T12:06:28.971Z,4.53
2023-01-20T12:07:28.970Z,4.48
2023-01-20T12:08:28.975Z,4.43
2023-01-20T12:09:28.957Z,4.49
2023-01-20T12:10:28.931Z,4.53
2023-01-20T12:11:28.914Z,4.53
2023-01-20T12:12:28.911Z,4.45
2023-01-20T12:13:28.909Z,4.51
2023-01-20T12:14:28.907Z,4.49
2023-01-20T12:15:28.868Z,4.45
2023-01-20T12:16:28.951Z,4.49
2023-01-20T12:17:28.847Z,4.49
2023-01-20T12:18:28.864Z,4.46
2023-01-20T12:19:28.853Z,4.51
2023-01-20T12:20:28.846Z,4.54
2023-01-20T12:21:28.808Z,4.53
2023-01-20T12:22:28.801Z,4.54
2023-01-20T12:23:28.781Z,4.53
2023-01-20T12:24:42.258Z,4.54
2023-01-20T12:25:29.784Z,4.46
2023-01-20T12:26:28.760Z,4.51
2023-01-20T12:27:28.738Z,4.56
2023-01-20T12:28:28.735Z,4.49
2023-01-20T12:29:28.752Z,4.56
2023-01-20T12:30:28.748Z,4.60
2023-01-20T12:31:28.767Z,4.59
2023-01-20T12:32:28.693Z,4.53
2023-01-20T12:33:28.682Z,4.59
2023-01-20T12:34:28.690Z,4.61
2023-01-20T12:35:28.661Z,4.59
2023-01-20T12:36:28.672Z,4.53
2023-01-20T12:37:28.661Z,4.53
2023-01-20T12:38:28.629Z,4.59
2023-01-20T12:39:28.632Z,4.60
2023-01-20T12:40:28.611Z,4.61
2023-01-20T12:41:28.596Z,4.60
2023-01-20T12:42:28.609Z,4.57
2023-01-20T12:43:28.580Z,4.61
2023-01-20T12:44:28.564Z,4.63
2023-01-20T12:45:28.551Z,4.61
2023-01-20T12:46:28.544Z,4.66
2023-01-20T12:47:28.564Z,4.60
2023-01-20T12:48:28.519Z,4.57
2023-01-20T12:49:28.511Z,4.64
2023-01-20T12:50:28.624Z,4.63
2023-01-20T12:51:28.515Z,4.63
2023-01-20T12:52:28.548Z,4.60
2023-01-20T12:53:28.467Z,4.61
2023-01-20T12:54:35.875Z,4.64
2023-01-20T12:55:29.438Z,4.61
2023-01-20T12:56:28.430Z,4.63
2023-01-20T12:57:28.441Z,4.64
2023-01-20T12:58:28.408Z,4.63
2023-01-20T12:59:28.401Z,4.63
2023-01-20T13:00:28.396Z,4.66
2023-01-20T13:01:28.424Z,4.59
2023-01-20T13:02:28.381Z,4.71
2023-01-20T13:03:28.358Z,4.61
2023-01-20T13:04:28.350Z,4.66
2023-01-20T13:05:28.332Z,4.63
2023-01-20T13:06:28.387Z,4.69
2023-01-20T13:07:28.315Z,4.72
2023-01-20T13:08:28.321Z,4.63
2023-01-20T13:09:28.293Z,4.72
2023-01-20T13:10:28.282Z,4.69
2023-01-20T13:11:28.300Z,4.69
2023-01-20T13:12:28.262Z,4.67
2023-01-20T13:13:28.252Z,4.72
2023-01-20T13:14:28.246Z,4.67
2023-01-20T13:15:28.246Z,4.71
2023-01-20T13:16:28.228Z,4.71
2023-01-20T13:17:28.252Z,4.71
2023-01-20T13:18:28.200Z,4.71